Snaith, United Kingdom
Current Conditions -  °F | °C
As of 7:20 PM on Thursday 23 Oct 2014 (Local Time) from EGCN Reporting Station
Broken Clouds Broken Clouds  
Wind Chill: 59°   Ceiling: 2100
Heat Index: 59°   Visibility: 6mi
Dew Point: 55°   Wind: 9mph
Humidity: 88%   Direction: 180°S
Pressure: 29.91"   Gusts: NA
Location:  53.69°N, 1.03°W
Report Text: EGCN 231820Z 18008KT 9999 SCT015 BKN021 BKN033 15/13 Q1013
Loading
Personal Weather Stations






























Interactive Weather Map New forecast layout! Learn more

10-Day Weather Forecast

Advertisements
Track Severe Weather on mobile